Timeline UpdatesTrip UpdatesNews PostsPvt PostsTravel TipsAdmin PostsConv PostsFollowed PostsChat RequestsBlog PostsPNR Posts

Disclaimer
Search
 
 
Mon Sep 22, 2014 19:46:20 ISTHomeTrainsΣChainsAtlasPNRForumGalleryNewsFAQTripsMembersLoginFeedback
No Recent News for this Train
Other Trains in the News **new
Latest...
Short Termination at Azimganj City on 15th , 17th-25th September 2014 #1198366-1
Thu Sep 11, 2014 (09:14PM)
⇐ Return Journey: Train# 73152

73151/Sealdah-Jangipur Road DEMU

Sep 22 departure has been CANCELLED from ACLE/Azimganj City to JRLE/Jangipur Road
Time-Table HAS CHANGED.
Sep 11 (9:14PM)
Change Departure Station:
Change Arrival Station:
Post a Train Travel TipPost a Train Travel Tip **new
Post a Comment/Question/Picture/VideoPost a Comment/Question/Picture/Video
Inaugural Run
Tue Feb 21, 2012
Pantry/Catering
✕ NO Pantry Car
✕ NO Catering
RSA - Rake Sharing
Rake/Coach Composition
Loco
News    PNR    Forum    Time-Table    Availability    Fare Chart    Map    Arr/Dep History    Trips    Gallery    ΣChains    X/O    Timeline    
Travel Time: 6h 29m    43 halts    Distance: 239 km    Avg Speed: 36 km/hr
Type: DEMU
Zone: ER/Eastern
Departs @ 05:35 (Avg on time)
Platform# ???
 MTWTFS
Kolkata Sealdah/SDAH 
Arrives @ 12:04
Platform# ???
 MTWTFS
Noapara Mahisha/NWMS 

43 halts. 72 intermediate Stations between Kolkata Sealdah and Noapara Mahisha

Show ALL intermediate Stations  Show Old Time-Table

#CodeStation NameX/OArrivesAvgDepartsAvgHaltPFDay#KmSpeedElevZoneAddress
1SDAHKolkata Sealdah (20)»  -05:35+0--10.0368mERPh : 033-23503535 (For North: APC Roy Road) Kolkata 700014, West Bengal
2DDJDum Dum Junction (5)  05:47 05:46+005:48 05:47+01m316.56710mERKolkata - 700028, West Bengal
3BPBarrackpore (5)X  06:02 06:01+306:03 06:02+31m--122.23812mERDist - 24 paraganas (N), West Bengal
4NHNaihati Junction (5)X  06:27 06:26+106:32 06:31+05m2137.61915mERdist - North 24 paraganas - 743165, West Bengal
5BDCBandel Junction (7)  06:58 06:57+107:00 06:59+42m4146.05414mERdist - HOOGHLY, West Bengal
6BSAEBansh Baria  07:05 07:04+607:06 07:05+61m--150.47413mERBansberia, West Bengal
7TBAETribeni  07:09 07:08+807:10 07:09+81m--154.110016mERTribeni, West Bengal
8KJUKuntighat  07:13 07:11-07:14 07:12-1m--157.59817mERKuntighat Railway Station, West Bengal
9DMLEDumurdaha  07:16 07:14-07:17 07:15-1m--160.76015mERDumurdahadham, West Bengal
10KMAEKhamargachhi  07:19 07:17+1007:20 07:18+101m--162.710414mERKhamargachi, West Bengal
11JITJirat (3)  07:23 07:21+1207:24 07:22+121m--167.96615mERdist - hooghly, West Bengal
12BGAEBalagarh  07:27 07:25-07:28 07:26-1m--171.28413mERBalagarh, West Bengal
13SOAESomra Bazar (2)  07:30 07:28-07:31 07:29-1m--174.014513mERState Highway 6, West Bengal
14BHLABehula  07:33 07:31-07:34 07:32-1m--178.84516mERDist - Hooghly, West Bengal
15GPAEGuptipara  07:42 07:35+1207:46 07:36+104 1m--181.18614mERGuptipara Railway Station, West Bengal
16ABKAAmbika Kalna (4)  07:52 07:41+1107:53 07:42+121m3188.28012mERKalna, West Bengal
17BGRABaghnapara (2)  08:01 07:45+1108:02 07:46+131m--192.26916mERKalna-Memari Rd, West Bengal
18DTAEDhatrigram (4)  08:10 07:50+1308:11 07:51+151m--196.82016mERDhatrigram, West Bengal
19SMAESamudra Garh  08:22 08:11+1308:23 08:12+141m--1103.57416mERDist - Bardhaman, West Bengal
20KLNTKalinagar (1)  08:26 08:15+1608:27 08:16+171m11107.2529mERDist - Nadia, West Bengal
21NDAENabadwip Dham (3)  08:31 08:21+1808:32 08:23+191 2m--1111.57915mERDist - Nadia, West Bengal
22BFZBhandartikuri  08:37 08:27+1908:38 08:28+191m--1116.87121mERDist - Bardhaman, West Bengal
23PSAEPurbasthali (2)  08:40 08:30+2108:41 08:31+211m--1119.29219mERDist - Bardhaman, West Bengal
24LKXLakshmipur (2)  08:45 08:35+2408:46 08:36+261m--1125.38214mERDist - burdhaman, West Bengal
25BQYBelerhat  08:48 08:38-08:49 08:39-1m--1128.07519mERJajneswarpur, West Bengal
26PTAEPatuli (2)  09:00 08:43+2509:01 08:44+251m--1133.19718mERDist - bardhaman, West Bengal
27AGAEAgradwip (2)  09:10 08:47+2309:11 08:48+231m--1137.96118mERDist - Bardhaman, West Bengal
28DHAEDainhat (4)  09:17 08:54+2709:18 08:55+271m31144.01219mERDaihaat Rd, West Bengal
29KWAEKatwa Junction (5)  09:47 09:30+409:49 09:35+132 5m31150.95221mERDist - Bardhaman, West Bengal
30GGLEGangatikuri (2)  10:08 09:47+1110:09 09:48+111m--1161.22319mERState Highway 6, West Bengal
31JHBNJhamatpur Baharan  10:13 09:56-10:14 09:57-1m--1164.34526mERGoai, West Bengal
32SALESalar (2)  10:20 10:02+1110:21 10:03+151m--1168.14526mERSalar, West Bengal
33MHTRMalihati Talibpur RoadX  10:25 10:06-10:26 10:07-1m--1170.34223mERMalihati Talibpur Road, West Bengal
34TYAETenya (1)  10:32 10:13+1410:33 10:14+151m11174.64619mERTenya, West Bengal
35BZLEBazarsau (2)  10:43 10:23+1910:44 10:24+221m--1181.56521mERBazarsau, West Bengal
36CWLEChowrigacha (2)  10:52 10:31+2510:53 10:32+261m--1189.13019mERChowrigacha, West Bengal
37KTLRKanthaliya Road  11:06 10:37-11:07 10:38-1m--1191.66919mERKhagraghat - Chowrigacha, West Bengal
38KNSNKarna Subarna (2)X  11:22 10:44+1111:23 10:45+151m--1198.45028mERKhagraghat - Chowrigacha, West Bengal
39KGLEKhagraghat Road (2)X  11:32 10:58+1711:33 10:59+181m--1209.32222mERKhagraghat, West Bengal
40NLSFNiyalish Para (1)  11:36 11:12-11:37 11:13-1m11214.03321mERNational Highway 34, West Bengal
41LCAELalbagh Court Road (2)  11:43 11:19+1611:44 11:20+161m--1217.22023mERLalbagh Court Road, West Bengal
42AZAzimganj Junction (4)X  12:05 11:40+412:10 11:45+65m--1223.92725mERPolice Station Rd, West Bengal
43ACLEAzimganj City (1)  12:13 11:48-12:14 11:49-1m11225.36525mERPolice Station Rd, West Bengal
44MPLRMahipal Road (3)  12:21 11:57+1312:22 11:58+161m--1234.05529mERLalgola, West Bengal
45NWMSNoapara Mahisha (2)•  12:32 12:04-12:33 12:05-1m--1239.55933mERSagardighi Railway Station, West Bengal
46MGLEManigram (5)X  12:37 12:10+812:38 12:11+91m--1244.45837mERLalgola, West Bengal
47GALEGankar (2)  12:45 12:19+1012:46 12:20+111m--1252.12831mERGankar, West Bengal
48JRLEJangipur Road (2)  12:56 12:35+12---1259.0-30mERRaghunathganj, West Bengal
Scroll to Top
Scroll to Bottom